Capitol Logistics 2450

Operating for GTI



KJFK
John F Kennedy International Airport
New York, New York
KATL
Hartsfield - Jackson Atlanta International Airport
Atlanta, Georgia

Activity Log

Date Flight Route Aircraft Duration
07/19/2021 CPX2450 RBV Q430 BYRDD J48 FLASK OZZZI1 B763 1h 49m

Route Details

Aircraft Information
Primary: Boeing 767-300BDSF
Backup: Airbus A300-600F
Route Data
Distance: 661nm
Duration: 2h 04m
Recm'd Route: RBV Q430 BYRDD J48 FLASK OZZZI1
Origin Wx: KJFK 020551Z 23011KT 10SM SCT031 BKN170 20/18 A2984 RMK AO2 SLP103 60004 T02000183 10222 20189 55012
Dest. Wx: KATL 020552Z 32007KT 10SM FEW040 SCT250 24/21 A3001 RMK AO2 SLP149 T02440206 10283 20244 57001
Notes: